Time;durP1;ratioP1;P1;durP2;ratioP2;P2;SDS_P1;SDS_P2;PMS_P1;PMS_P2;Temp;Humidity;BMP_temperature;BMP_pressure;BME280_temperature;BME280_humidity;BME280_pressure;Samples;Min_cycle;Max_cycle;Signal;HPM_P1;HPM_P2
2023/01/25 00:01:51;;;;;;;27.83;12.35;;;0.90;99.90;;;;;;4853214;29;20045;-80
2023/01/25 00:04:19;;;;;;;31.27;13.32;;;1.50;99.90;;;;;;4859223;29;20045;-81
2023/01/25 00:06:44;;;;;;;36.97;15.43;;;2.80;99.90;;;;;;4875263;29;20388;-81
2023/01/25 00:09:11;;;;;;;41.97;15.85;;;2.60;99.90;;;;;;4864404;29;20041;-81
2023/01/25 00:11:36;;;;;;;41.47;16.52;;;1.80;99.90;;;;;;4876941;29;20036;-81
2023/01/25 00:14:03;;;;;;;38.17;15.20;;;2.20;99.90;;;;;;4867615;29;20055;-81
2023/01/25 00:16:29;;;;;;;;;;;0.80;99.90;;;;;;4883548;29;20036;-81
2023/01/25 00:18:54;;;;;;;41.30;15.82;;;0.90;99.90;;;;;;4859003;29;20443;-81
2023/01/25 00:21:22;;;;;;;36.65;15.63;;;0.80;99.90;;;;;;4880913;29;20075;-80
2023/01/25 00:23:49;;;;;;;39.53;15.25;;;2.80;99.90;;;;;;4876581;29;20147;-81
2023/01/25 00:26:15;;;;;;;34.30;13.85;;;0.80;99.90;;;;;;4889387;29;20040;-81
2023/01/25 00:28:41;;;;;;;37.38;14.63;;;0.80;99.90;;;;;;4880665;29;20098;-81
2023/01/25 00:31:14;;;;;;;38.20;15.60;;;1.90;99.90;;;;;;4871897;29;20568;-81
2023/01/25 00:33:50;;;;;;;32.17;14.30;;;2.90;99.90;;;;;;4870436;29;20511;-81
2023/01/25 00:36:22;;;;;;;35.92;15.05;;;0.80;99.90;;;;;;4885013;29;20072;-80
2023/01/25 00:38:47;;;;;;;37.33;14.43;;;2.30;99.90;;;;;;4890897;29;20434;-81
2023/01/25 00:41:13;;;;;;;34.25;14.25;;;0.90;99.90;;;;;;4863891;29;20123;-80
2023/01/25 00:43:39;;;;;;;31.63;14.30;;;0.80;99.90;;;;;;4873314;29;20036;-80
2023/01/25 00:46:04;;;;;;;33.28;13.77;;;0.80;99.90;;;;;;4859874;29;20041;-80
2023/01/25 00:48:30;;;;;;;36.10;14.67;;;0.90;99.90;;;;;;4878335;29;20548;-82
2023/01/25 00:51:00;;;;;;;30.98;13.77;;;2.80;99.90;;;;;;4873165;29;20292;-80
2023/01/25 00:53:26;;;;;;;32.08;13.43;;;1.40;99.90;;;;;;4883618;29;20095;-81
2023/01/25 00:55:52;;;;;;;28.70;12.73;;;0.90;99.90;;;;;;4871981;29;20118;-81
2023/01/25 00:58:18;;;;;;;26.58;12.07;;;2.80;99.90;;;;;;4873112;29;20047;-80
2023/01/25 01:00:44;;;;;;;27.95;12.77;;;2.20;99.90;;;;;;4898186;29;20503;-80
2023/01/25 01:03:09;;;;;;;28.50;12.23;;;1.30;99.90;;;;;;4889017;29;20040;-80
2023/01/25 01:05:36;;;;;;;27.42;12.38;;;0.80;99.90;;;;;;4868214;29;20561;-80
2023/01/25 01:08:03;;;;;;;30.75;13.82;;;0.80;99.90;;;;;;4880575;29;20084;-80
2023/01/25 01:10:28;;;;;;;28.45;13.68;;;0.80;99.90;;;;;;4858147;29;20043;-81
2023/01/25 01:12:54;;;;;;;30.60;13.68;;;0.80;99.90;;;;;;4876473;29;20045;-81
2023/01/25 01:15:20;;;;;;;31.98;14.00;;;0.80;99.90;;;;;;4855479;29;20389;-81
2023/01/25 01:17:46;;;;;;;31.88;13.85;;;0.80;99.90;;;;;;4856861;29;20152;-80
2023/01/25 01:20:12;;;;;;;28.23;13.05;;;0.80;99.90;;;;;;4879749;29;20497;-81
2023/01/25 01:22:38;;;;;;;32.35;13.52;;;2.50;99.90;;;;;;4881529;29;20040;-81
2023/01/25 01:25:04;;;;;;;31.45;13.90;;;0.80;99.90;;;;;;4883858;29;20544;-82
2023/01/25 01:27:30;;;;;;;;;;;0.80;99.90;;;;;;4881545;29;20080;-81
2023/01/25 01:29:56;;;;;;;25.40;11.05;;;0.80;99.90;;;;;;4876251;29;19977;-81
2023/01/25 01:32:21;;;;;;;30.45;13.05;;;0.80;99.90;;;;;;4862856;29;20052;-82
2023/01/25 01:34:47;;;;;;;31.58;14.52;;;1.80;99.90;;;;;;4849201;29;20159;-82
2023/01/25 01:37:13;;;;;;;29.38;11.88;;;0.80;99.90;;;;;;4865803;29;20123;-81
2023/01/25 01:39:38;;;;;;;31.37;14.33;;;2.60;99.90;;;;;;4849781;29;20524;-82
2023/01/25 01:42:04;;;;;;;33.33;13.63;;;0.70;99.90;;;;;;4857015;29;20340;-82
2023/01/25 01:44:52;;;;;;;30.33;13.15;;;0.70;99.90;;;;;;4893563;29;20103;-81
2023/01/25 01:47:30;;;;;;;32.80;14.15;;;0.70;99.90;;;;;;4880199;29;20461;-82
2023/01/25 01:50:19;;;;;;;28.52;12.90;;;0.70;99.90;;;;;;4893767;29;20072;-82
2023/01/25 01:52:45;;;;;;;32.25;14.25;;;0.70;99.90;;;;;;4862908;29;20053;-82
2023/01/25 01:55:17;;;;;;;33.92;14.35;;;0.80;99.90;;;;;;4879515;29;20047;-82
2023/01/25 01:57:47;;;;;;;36.15;14.10;;;0.70;99.90;;;;;;4884074;29;20044;-82
2023/01/25 02:00:29;;;;;;;31.98;12.90;;;1.80;99.90;;;;;;4877602;29;20036;-82
2023/01/25 02:02:55;;;;;;;35.50;14.18;;;0.70;99.90;;;;;;4888067;29;20493;-82
2023/01/25 02:05:45;;;;;;;34.55;13.52;;;0.70;99.90;;;;;;4845024;29;20068;-82
2023/01/25 02:08:13;;;;;;;37.35;14.68;;;2.70;99.90;;;;;;4881811;29;20127;-82
2023/01/25 02:10:41;;;;;;;33.10;15.02;;;0.70;99.90;;;;;;4865500;29;20037;-82
2023/01/25 02:13:06;;;;;;;36.85;15.50;;;0.70;99.90;;;;;;4896541;29;20052;-82
2023/01/25 02:15:37;;;;;;;36.55;14.55;;;1.60;99.90;;;;;;4860390;29;20041;-82
2023/01/25 02:18:03;;;;;;;33.60;13.90;;;0.60;99.90;;;;;;4873423;29;20059;-82
2023/01/25 02:20:38;;;;;;;35.28;15.57;;;0.60;99.90;;;;;;4846812;29;20049;-81
2023/01/25 02:23:15;;;;;;;36.80;14.98;;;0.60;99.90;;;;;;4869572;29;20143;-81
2023/01/25 02:25:41;;;;;;;36.85;14.93;;;0.60;99.90;;;;;;4871247;29;20036;-81
2023/01/25 02:28:53;;;;;;;37.28;15.35;;;0.60;99.90;;;;;;4865397;29;20551;-81
2023/01/25 02:31:19;;;;;;;35.25;14.82;;;0.60;99.90;;;;;;4811634;29;20045;-81
2023/01/25 02:33:45;;;;;;;40.40;16.88;;;0.80;99.90;;;;;;4803782;29;20095;-82
2023/01/25 02:36:10;;;;;;;39.80;15.55;;;1.50;99.90;;;;;;4822785;29;20074;-81
2023/01/25 02:38:45;;;;;;;44.42;16.40;;;0.50;99.90;;;;;;4868521;29;20063;-82
2023/01/25 02:41:42;;;;;;;39.33;15.68;;;0.60;99.90;;;;;;4896417;29;20036;-81
2023/01/25 02:44:23;;;;;;;44.33;17.20;;;2.60;99.90;;;;;;4873682;29;20048;-81
2023/01/25 02:46:49;;;;;;;40.58;16.20;;;0.60;99.90;;;;;;4889216;29;20141;-81
2023/01/25 02:49:16;;;;;;;41.38;16.48;;;1.90;99.90;;;;;;4883055;29;20061;-81
2023/01/25 02:51:45;;;;;;;44.45;17.67;;;1.80;99.90;;;;;;4863868;29;20119;-80
2023/01/25 02:54:13;;;;;;;46.95;18.63;;;0.60;99.90;;;;;;4871159;29;20044;-80
2023/01/25 02:56:39;;;;;;;45.70;17.20;;;0.60;99.90;;;;;;4898117;29;20036;-80
2023/01/25 02:59:06;;;;;;;45.63;17.42;;;2.70;99.90;;;;;;4899945;29;20043;-81
2023/01/25 03:01:37;;;;;;;45.25;18.00;;;0.60;99.90;;;;;;4886435;29;20041;-81
2023/01/25 03:04:04;;;;;;;44.35;17.90;;;1.20;99.90;;;;;;4873727;29;20040;-81
2023/01/25 03:06:30;;;;;;;48.15;17.98;;;0.60;99.90;;;;;;4897064;29;20047;-81
2023/01/25 03:08:56;;;;;;;36.83;13.95;;;0.60;99.90;;;;;;4863593;29;20040;-81
2023/01/25 03:11:21;;;;;;;49.33;19.33;;;0.70;99.90;;;;;;4871456;29;20436;-81
2023/01/25 03:13:47;;;;;;;52.23;19.30;;;2.40;99.90;;;;;;4875708;29;20396;-82
2023/01/25 03:16:13;;;;;;;42.08;16.27;;;0.60;99.90;;;;;;4894263;29;20288;-81
2023/01/25 03:18:40;;;;;;;42.15;15.93;;;2.70;99.90;;;;;;4876625;29;20040;-81
2023/01/25 03:21:06;;;;;;;48.58;17.83;;;1.00;99.90;;;;;;4862369;29;20059;-82
2023/01/25 03:23:32;;;;;;;52.63;19.33;;;0.50;99.90;;;;;;4882832;29;20404;-81
2023/01/25 03:26:11;;;;;;;47.28;18.10;;;0.50;99.90;;;;;;4868187;29;20044;-81
2023/01/25 03:28:38;;;;;;;57.72;20.98;;;0.40;99.90;;;;;;4879394;29;20047;-81
2023/01/25 03:31:05;;;;;;;66.32;21.20;;;0.40;99.90;;;;;;4889570;29;20124;-81
2023/01/25 03:33:31;;;;;;;58.65;22.83;;;0.40;99.90;;;;;;4860273;29;20071;-81
2023/01/25 03:35:57;;;;;;;61.20;21.65;;;2.40;99.90;;;;;;4879833;29;20047;-81
2023/01/25 03:38:23;;;;;;;55.72;20.88;;;0.40;99.90;;;;;;4880350;29;20043;-81
2023/01/25 03:40:49;;;;;;;61.13;20.33;;;1.60;99.90;;;;;;4870265;29;20040;-81
2023/01/25 03:43:15;;;;;;;49.83;18.80;;;0.40;99.90;;;;;;4862761;29;20042;-81
2023/01/25 03:45:40;;;;;;;54.10;21.00;;;0.60;99.90;;;;;;4855810;29;20040;-81
2023/01/25 03:48:06;;;;;;;45.83;17.10;;;2.30;99.90;;;;;;4870639;29;20072;-81
2023/01/25 03:50:32;;;;;;;53.10;19.65;;;2.60;99.90;;;;;;4834456;29;20044;-81
2023/01/25 03:53:01;;;;;;;53.13;21.17;;;0.50;99.90;;;;;;4883853;29;20040;-81
2023/01/25 03:55:27;;;;;;;52.65;18.73;;;0.40;99.90;;;;;;4882681;29;20047;-81
2023/01/25 03:57:53;;;;;;;;;;;1.80;99.90;;;;;;4859829;29;20162;-81
2023/01/25 04:00:19;;;;;;;50.70;18.60;;;0.40;99.90;;;;;;4874042;29;19999;-81
2023/01/25 04:02:46;;;;;;;55.88;19.73;;;0.40;99.90;;;;;;4875107;29;20048;-81
2023/01/25 04:05:12;;;;;;;52.75;20.48;;;0.30;99.90;;;;;;4878689;29;20091;-81
2023/01/25 04:07:38;;;;;;;54.15;20.02;;;2.20;99.90;;;;;;4890847;29;20119;-81
2023/01/25 04:10:04;;;;;;;57.72;22.05;;;0.20;99.90;;;;;;4874398;29;20044;-81
2023/01/25 04:12:31;;;;;;;57.58;20.52;;;0.30;99.90;;;;;;4859872;29;20043;-81
2023/01/25 04:14:57;;;;;;;55.17;20.08;;;0.30;99.90;;;;;;4888194;29;20040;-82
2023/01/25 04:17:23;;;;;;;56.78;20.70;;;0.30;99.90;;;;;;4856147;29;20116;-82
2023/01/25 04:19:48;;;;;;;52.33;17.80;;;0.80;99.90;;;;;;4854015;29;20528;-82
2023/01/25 04:22:15;;;;;;;44.35;17.15;;;0.30;99.90;;;;;;4870312;29;20087;-82
2023/01/25 04:24:41;;;;;;;58.80;19.35;;;0.90;99.90;;;;;;4879866;29;20040;-82
2023/01/25 04:27:07;;;;;;;45.70;17.38;;;0.40;99.90;;;;;;4854782;29;20450;-82
2023/01/25 04:29:33;;;;;;;54.13;20.52;;;1.70;99.90;;;;;;4842133;29;20108;-82
2023/01/25 04:31:59;;;;;;;52.15;20.40;;;0.30;99.90;;;;;;4851583;29;20042;-82
2023/01/25 04:34:25;;;;;;;56.78;20.45;;;0.30;99.90;;;;;;4884751;29;20477;-82
2023/01/25 04:36:51;;;;;;;59.35;22.38;;;1.40;99.90;;;;;;4867069;29;20032;-82
2023/01/25 04:39:16;;;;;;;49.77;18.63;;;0.40;99.90;;;;;;4888169;29;20043;-82
2023/01/25 04:41:42;;;;;;;55.08;19.95;;;1.80;99.90;;;;;;4845055;29;20296;-82
2023/01/25 04:44:08;;;;;;;54.03;20.67;;;1.40;99.90;;;;;;4877864;29;20048;-82
2023/01/25 04:46:33;;;;;;;56.67;20.83;;;0.40;99.90;;;;;;4857175;29;20132;-82
2023/01/25 04:48:59;;;;;;;56.38;21.55;;;1.20;99.90;;;;;;4871568;29;20137;-82
2023/01/25 04:51:25;;;;;;;54.25;19.58;;;0.30;99.90;;;;;;4872007;29;20104;-82
2023/01/25 04:53:50;;;;;;;53.60;21.33;;;1.50;99.90;;;;;;4876556;29;20040;-83
2023/01/25 04:56:16;;;;;;;53.97;20.13;;;1.80;99.90;;;;;;4860217;29;20048;-81
2023/01/25 04:58:42;;;;;;;56.63;21.13;;;0.20;99.90;;;;;;4871675;29;20312;-82
2023/01/25 05:01:07;;;;;;;61.93;22.30;;;0.60;99.90;;;;;;4887184;29;20287;-82
2023/01/25 05:03:33;;;;;;;52.97;19.20;;;0.20;99.90;;;;;;4853888;29;20293;-82
2023/01/25 05:05:59;;;;;;;59.08;22.50;;;0.20;99.90;;;;;;4850493;29;20072;-82
2023/01/25 05:08:27;;;;;;;57.23;21.30;;;2.00;99.90;;;;;;4862477;29;20506;-82
2023/01/25 05:10:56;;;;;;;60.30;21.80;;;0.20;99.90;;;;;;4843356;29;20398;-82
2023/01/25 05:13:22;;;;;;;55.95;21.65;;;0.20;99.90;;;;;;4856777;29;20511;-82
2023/01/25 05:15:47;;;;;;;52.75;20.63;;;0.20;99.90;;;;;;4889194;29;20126;-82
2023/01/25 05:18:13;;;;;;;61.55;21.98;;;0.30;99.90;;;;;;4879906;29;20029;-82
2023/01/25 05:20:39;;;;;;;56.42;21.63;;;0.20;99.90;;;;;;4835502;29;20059;-82
2023/01/25 05:23:04;;;;;;;47.50;19.35;;;0.20;99.90;;;;;;4864961;29;20032;-81
2023/01/25 05:28:14;;;;;;;55.72;20.20;;;0.20;99.90;;;;;;4890432;29;20051;-81
2023/01/25 05:30:40;;;;;;;57.08;21.02;;;0.20;99.90;;;;;;4873644;29;20040;-81
2023/01/25 05:33:05;;;;;;;55.93;21.53;;;0.20;99.90;;;;;;4869183;29;20037;-81
2023/01/25 05:35:31;;;;;;;50.00;19.57;;;0.20;99.90;;;;;;4862932;29;20282;-81
2023/01/25 05:37:57;;;;;;;59.20;22.27;;;0.40;99.90;;;;;;4879380;29;20284;-81
2023/01/25 05:40:24;;;;;;;58.25;22.17;;;1.90;99.90;;;;;;4890174;29;20340;-81
2023/01/25 05:42:54;;;;;;;59.78;22.13;;;0.20;99.90;;;;;;4905074;29;20047;-81
2023/01/25 05:45:20;;;;;;;56.85;21.00;;;0.20;99.90;;;;;;4845561;29;20070;-82
2023/01/25 05:47:46;;;;;;;54.80;21.13;;;0.60;99.90;;;;;;4891772;29;20036;-82
2023/01/25 05:50:11;;;;;;;60.25;22.50;;;0.70;99.90;;;;;;4880580;29;20040;-82
2023/01/25 05:52:37;;;;;;;62.95;22.70;;;0.30;99.90;;;;;;4874006;29;20087;-82
2023/01/25 05:55:03;;;;;;;63.30;24.73;;;0.30;99.90;;;;;;4860854;29;20493;-81
2023/01/25 05:57:29;;;;;;;63.20;24.20;;;0.30;99.90;;;;;;4852230;29;20476;-82
2023/01/25 05:59:54;;;;;;;58.50;22.73;;;1.50;99.90;;;;;;4874827;29;20033;-82
2023/01/25 06:02:20;;;;;;;58.30;22.30;;;1.80;99.90;;;;;;4855082;29;20037;-82
2023/01/25 06:04:46;;;;;;;53.35;21.35;;;1.10;99.90;;;;;;4878942;29;20040;-82
2023/01/25 06:07:11;;;;;;;58.80;21.95;;;2.30;99.90;;;;;;4877311;29;20040;-83
2023/01/25 06:09:37;;;;;;;59.15;22.35;;;1.90;99.90;;;;;;4852031;29;20043;-82
2023/01/25 06:12:04;;;;;;;58.35;22.02;;;1.50;99.90;;;;;;4905329;29;20055;-82
2023/01/25 06:14:30;;;;;;;54.63;20.15;;;0.20;99.90;;;;;;4852223;29;20066;-82
2023/01/25 06:16:56;;;;;;;56.97;21.58;;;1.50;99.90;;;;;;4871240;29;20072;-82
2023/01/25 06:19:21;;;;;;;48.60;17.23;;;1.70;99.90;;;;;;4869562;29;20028;-82
2023/01/25 06:21:49;;;;;;;53.60;21.05;;;0.10;99.90;;;;;;4869354;29;20116;-82
2023/01/25 06:24:14;;;;;;;56.25;19.75;;;0.90;99.90;;;;;;4846703;29;20044;-82
2023/01/25 06:26:40;;;;;;;58.03;20.33;;;0.10;99.90;;;;;;4873260;29;20043;-82
2023/01/25 06:29:06;;;;;;;49.87;18.63;;;0.10;99.90;;;;;;4872338;29;20449;-82
2023/01/25 06:31:32;;;;;;;53.22;20.25;;;0.70;99.90;;;;;;4878722;29;20305;-82
2023/01/25 06:33:59;;;;;;;56.75;21.55;;;1.50;99.90;;;;;;4865934;29;20044;-82
2023/01/25 06:36:25;;;;;;;57.22;22.00;;;0.10;99.90;;;;;;4829884;29;20598;-82
2023/01/25 06:38:51;;;;;;;55.70;20.38;;;0.00;99.90;;;;;;4850115;29;20032;-82
2023/01/25 06:41:17;;;;;;;;;;;0.00;99.90;;;;;;4866282;29;20044;-82
2023/01/25 06:43:43;;;;;;;54.42;20.88;;;0.00;99.90;;;;;;4861428;29;20066;-82
2023/01/25 06:46:10;;;;;;;55.33;19.98;;;0.90;99.90;;;;;;4867071;29;20056;-82
2023/01/25 06:48:40;;;;;;;55.00;20.80;;;0.50;99.90;;;;;;4864645;29;20048;-82
2023/01/25 06:51:09;;;;;;;48.28;18.10;;;1.40;99.90;;;;;;4862206;29;20044;-82
2023/01/25 06:53:38;;;;;;;56.85;20.38;;;0.10;99.90;;;;;;4868010;29;20036;-82
2023/01/25 06:56:20;;;;;;;55.67;20.80;;;0.10;99.90;;;;;;4853332;29;20037;-82
2023/01/25 06:58:46;;;;;;;55.78;21.17;;;1.00;99.90;;;;;;4882825;29;20041;-82
2023/01/25 07:01:21;;;;;;;62.45;21.88;;;0.80;99.90;;;;;;4880816;29;20166;-82
2023/01/25 07:03:48;;;;;;;49.53;18.23;;;0.00;99.90;;;;;;4883095;29;20098;-82
2023/01/25 07:06:14;;;;;;;54.45;20.85;;;0.10;99.90;;;;;;4895424;29;20051;-82
2023/01/25 07:08:40;;;;;;;52.17;19.48;;;2.20;99.90;;;;;;4879235;29;20037;-82
2023/01/25 07:11:11;;;;;;;50.72;20.05;;;0.00;99.90;;;;;;4898031;29;20123;-82
2023/01/25 07:13:37;;;;;;;46.47;17.40;;;2.40;99.90;;;;;;4900741;29;20727;-82
2023/01/25 07:16:05;;;;;;;52.33;19.05;;;0.00;99.90;;;;;;4896510;29;20040;-82
2023/01/25 07:18:32;;;;;;;56.42;21.20;;;0.10;99.90;;;;;;4875180;29;20055;-81
2023/01/25 07:21:11;;;;;;;52.10;20.83;;;0.10;99.90;;;;;;4885009;29;20111;-82
2023/01/25 07:23:37;;;;;;;55.58;19.85;;;0.20;99.90;;;;;;4871958;29;20126;-82
2023/01/25 07:26:04;;;;;;;53.33;19.55;;;0.00;99.90;;;;;;4867154;29;20044;-83
2023/01/25 07:28:31;;;;;;;53.20;19.88;;;0.00;99.90;;;;;;4869086;29;20044;-82
2023/01/25 07:31:05;;;;;;;46.58;18.38;;;1.40;99.90;;;;;;4887099;29;20044;-82
2023/01/25 07:33:31;;;;;;;54.00;20.58;;;0.00;99.90;;;;;;4861898;29;20580;-82
2023/01/25 07:36:01;;;;;;;;;;;0.60;99.90;;;;;;4868492;29;20039;-81
2023/01/25 07:38:26;;;;;;;50.75;19.40;;;0.00;99.90;;;;;;4879300;29;19923;-79
2023/01/25 07:40:52;;;;;;;44.15;17.33;;;-1.20;99.90;;;;;;4882523;29;20054;-79
2023/01/25 07:43:19;;;;;;;48.28;19.55;;;-0.10;99.90;;;;;;4881369;29;20135;-79
2023/01/25 07:45:48;;;;;;;48.03;17.92;;;-0.10;99.90;;;;;;4863870;29;20514;-79
2023/01/25 07:48:14;;;;;;;35.83;16.10;;;-0.10;99.90;;;;;;4879379;29;20056;-79
2023/01/25 07:50:40;;;;;;;44.55;18.40;;;-0.10;99.90;;;;;;4867609;29;20045;-79
2023/01/25 07:53:07;;;;;;;44.20;17.50;;;-0.10;99.90;;;;;;4864508;29;20041;-79
2023/01/25 07:55:33;;;;;;;;;;;-0.10;99.90;;;;;;4868440;29;20056;-78
2023/01/25 07:57:59;;;;;;;48.00;18.45;;;0.10;99.90;;;;;;4868709;29;19953;-78
2023/01/25 08:00:25;;;;;;;47.70;20.00;;;0.60;99.90;;;;;;4894928;29;20305;-78
2023/01/25 08:02:52;;;;;;;;;;;-0.20;99.90;;;;;;4872728;29;20048;-78
2023/01/25 08:05:18;;;;;;;41.38;16.23;;;-0.20;99.90;;;;;;4875540;29;19919;-78
2023/01/25 08:07:43;;;;;;;42.65;16.95;;;-0.20;99.90;;;;;;4874496;29;20151;-78
2023/01/25 08:10:10;;;;;;;43.55;16.92;;;0.30;99.90;;;;;;4864612;29;20127;-78
2023/01/25 08:12:36;;;;;;;38.63;17.23;;;-0.20;99.90;;;;;;4886543;29;20083;-78
2023/01/25 08:15:03;;;;;;;43.83;17.63;;;0.10;99.90;;;;;;4886350;29;20131;-78
2023/01/25 08:17:33;;;;;;;46.63;17.67;;;-0.20;99.90;;;;;;4891436;29;20446;-78
2023/01/25 08:20:00;;;;;;;48.55;18.88;;;0.00;99.90;;;;;;4885088;29;20127;-78
2023/01/25 08:22:27;;;;;;;46.22;19.20;;;-0.20;99.90;;;;;;4876156;29;20087;-78
2023/01/25 08:24:55;;;;;;;42.45;16.42;;;-0.20;99.90;;;;;;4864387;29;20151;-77
2023/01/25 08:27:22;;;;;;;44.08;17.75;;;-0.20;99.90;;;;;;4879443;29;20127;-78
2023/01/25 08:29:49;;;;;;;46.28;18.67;;;-0.20;99.90;;;;;;4880719;29;20090;-78
2023/01/25 08:32:15;;;;;;;48.60;18.95;;;-0.20;99.90;;;;;;4890681;29;20044;-78
2023/01/25 08:34:41;;;;;;;44.88;17.80;;;-0.10;99.90;;;;;;4888403;29;20041;-78
2023/01/25 08:37:07;;;;;;;47.45;17.45;;;-0.20;99.90;;;;;;4876171;29;20128;-78
2023/01/25 08:40:01;;;;;;;46.35;18.55;;;-0.10;99.90;;;;;;4886608;29;20548;-78
2023/01/25 08:42:27;;;;;;;46.40;17.27;;;-0.30;99.90;;;;;;4869553;29;20083;-78
2023/01/25 08:44:52;;;;;;;47.58;19.48;;;-0.30;99.90;;;;;;4859560;29;20434;-78
2023/01/25 08:47:18;;;;;;;46.00;18.15;;;-0.30;99.90;;;;;;4853653;29;20055;-78
2023/01/25 08:49:44;;;;;;;47.95;18.45;;;0.10;99.90;;;;;;4861564;29;20135;-78
2023/01/25 08:52:13;;;;;;;48.63;19.60;;;-0.30;99.90;;;;;;4892505;29;20032;-78
2023/01/25 08:54:42;;;;;;;51.55;18.77;;;0.00;99.90;;;;;;4843674;29;20051;-78
2023/01/25 08:57:08;;;;;;;50.05;19.30;;;0.80;99.90;;;;;;4885011;29;20385;-78
2023/01/25 08:59:34;;;;;;;48.55;19.40;;;-0.20;99.90;;;;;;4880185;29;20106;-78
2023/01/25 09:02:00;;;;;;;49.75;18.85;;;1.10;99.90;;;;;;4866413;29;20745;-78
2023/01/25 09:04:27;;;;;;;49.67;19.00;;;-0.20;99.90;;;;;;4890320;29;20040;-78
2023/01/25 09:06:54;;;;;;;44.50;17.77;;;-0.20;99.90;;;;;;4853448;29;20040;-78
2023/01/25 09:09:21;;;;;;;52.42;20.55;;;1.40;99.90;;;;;;4872850;29;20119;-78
2023/01/25 09:11:47;;;;;;;53.42;20.90;;;-0.20;99.90;;;;;;4849358;29;20047;-78
2023/01/25 09:14:13;;;;;;;54.35;21.48;;;-0.20;99.90;;;;;;4860321;29;20045;-78
2023/01/25 09:16:39;;;;;;;48.83;19.48;;;-0.20;99.90;;;;;;4863465;29;20046;-79
2023/01/25 09:19:05;;;;;;;53.53;20.95;;;-0.10;99.90;;;;;;4881128;29;20085;-79
2023/01/25 09:21:31;;;;;;;51.38;18.77;;;-0.10;99.90;;;;;;4879094;29;20071;-78
2023/01/25 09:23:58;;;;;;;49.05;19.77;;;0.00;99.90;;;;;;4864506;29;20140;-79
2023/01/25 09:26:24;;;;;;;48.15;17.50;;;1.00;99.90;;;;;;4866182;29;20059;-78
2023/01/25 09:28:52;;;;;;;57.72;20.63;;;-0.10;99.90;;;;;;4884114;29;20048;-78
2023/01/25 09:31:19;;;;;;;55.85;20.42;;;-0.10;99.90;;;;;;4880747;29;20442;-78
2023/01/25 09:33:45;;;;;;;56.75;19.73;;;-0.20;99.90;;;;;;4885295;29;20048;-78
2023/01/25 09:36:10;;;;;;;47.20;17.90;;;1.40;99.90;;;;;;4853892;29;20036;-78
2023/01/25 09:38:36;;;;;;;49.53;18.30;;;0.50;99.90;;;;;;4848363;29;20052;-79
2023/01/25 09:41:26;;;;;;;53.60;19.73;;;0.00;99.90;;;;;;4866823;29;20043;-78
2023/01/25 09:44:22;;;;;;;57.03;20.45;;;-0.10;99.90;;;;;;4878862;29;20056;-79
2023/01/25 09:47:01;;;;;;;55.30;19.25;;;-0.10;99.90;;;;;;4894213;29;20508;-78
2023/01/25 09:49:41;;;;;;;61.40;20.77;;;-0.10;99.90;;;;;;4885319;29;20040;-78
2023/01/25 09:52:30;;;;;;;52.03;18.10;;;-0.10;99.90;;;;;;4864311;29;20095;-78
2023/01/25 09:54:55;;;;;;;49.72;18.40;;;-0.10;99.90;;;;;;4874334;29;20181;-79
2023/01/25 09:57:28;;;;;;;52.05;18.38;;;0.00;99.90;;;;;;4863699;29;20127;-78
2023/01/25 09:59:55;;;;;;;53.95;19.83;;;0.00;99.90;;;;;;4878501;29;20033;-78
2023/01/25 10:02:30;;;;;;;55.30;20.15;;;-0.10;99.90;;;;;;4877005;29;20040;-78
2023/01/25 10:05:04;;;;;;;48.75;19.27;;;0.00;99.90;;;;;;4863291;29;20486;-78
2023/01/25 10:08:05;;;;;;;56.85;19.25;;;0.00;99.90;;;;;;4863116;29;20041;-79
2023/01/25 10:10:40;;;;;;;50.10;19.05;;;0.00;99.90;;;;;;4887460;29;20192;-78
2023/01/25 10:13:12;;;;;;;51.42;18.88;;;0.00;99.90;;;;;;4869571;29;20040;-77
2023/01/25 10:15:46;;;;;;;57.20;20.08;;;0.00;99.90;;;;;;4884825;29;20048;-78
2023/01/25 10:18:54;;;;;;;54.88;19.77;;;0.00;99.90;;;;;;4895250;29;20241;-78
2023/01/25 10:21:31;;;;;;;53.60;18.38;;;0.10;99.90;;;;;;4857906;29;20131;-79
2023/01/25 10:24:16;;;;;;;56.38;19.38;;;2.00;99.90;;;;;;4891336;29;20048;-78
2023/01/25 10:26:47;;;;;;;53.97;19.58;;;0.00;99.90;;;;;;4891516;29;20051;-77
2023/01/25 10:29:27;;;;;;;53.72;19.73;;;0.40;99.90;;;;;;4878203;29;20425;-77
2023/01/25 10:32:17;;;;;;;47.65;18.63;;;0.10;99.90;;;;;;4861289;29;20406;-77
2023/01/25 10:34:49;;;;;;;56.58;21.42;;;0.10;99.90;;;;;;4874210;29;20048;-77
2023/01/25 10:37:22;;;;;;;50.75;17.10;;;0.10;99.90;;;;;;4862619;29;20036;-77
2023/01/25 10:40:09;;;;;;;49.38;18.15;;;0.10;99.90;;;;;;4869148;29;20044;-77
2023/01/25 10:42:56;;;;;;;50.30;18.33;;;0.20;99.90;;;;;;4874458;29;20549;-77
2023/01/25 10:45:22;;;;;;;56.10;18.92;;;0.20;99.90;;;;;;4876044;29;20048;-77
2023/01/25 10:48:08;;;;;;;56.50;20.50;;;0.20;99.90;;;;;;4850878;29;20047;-78
2023/01/25 10:50:45;;;;;;;53.28;18.75;;;0.20;99.90;;;;;;4884532;29;20355;-78
2023/01/25 10:53:22;;;;;;;54.45;19.77;;;0.30;99.90;;;;;;4891920;29;20039;-76
2023/01/25 10:56:00;;;;;;;49.97;19.13;;;1.10;99.90;;;;;;4870798;29;20555;-78
2023/01/25 10:58:35;;;;;;;51.60;19.00;;;0.40;99.90;;;;;;4890293;29;20029;-79
2023/01/25 11:01:03;;;;;;;47.30;17.63;;;0.40;99.90;;;;;;4875239;29;20116;-78
2023/01/25 11:03:40;;;;;;;46.60;17.00;;;0.50;99.90;;;;;;4867294;29;20040;-78
2023/01/25 11:06:07;;;;;;;45.40;15.35;;;0.50;99.90;;;;;;4876179;29;20053;-78
2023/01/25 11:08:41;;;;;;;50.05;17.67;;;1.70;99.90;;;;;;4859895;29;20048;-78
2023/01/25 11:11:31;;;;;;;44.97;16.17;;;0.50;99.90;;;;;;4883927;29;20448;-78
2023/01/25 11:13:57;;;;;;;54.75;18.40;;;0.50;99.90;;;;;;4884102;29;20052;-77
2023/01/25 11:16:38;;;;;;;42.10;16.52;;;2.10;99.90;;;;;;4876343;29;20036;-77
2023/01/25 11:19:22;;;;;;;45.63;16.98;;;0.90;99.90;;;;;;4860625;29;20100;-78
2023/01/25 11:21:53;;;;;;;55.53;18.65;;;0.60;99.90;;;;;;4876820;29;20131;-77
2023/01/25 11:24:19;;;;;;;47.92;18.83;;;1.00;99.90;;;;;;4885175;29;20556;-77
2023/01/25 11:26:45;;;;;;;56.83;19.80;;;1.50;99.90;;;;;;4885487;29;20053;-77
2023/01/25 11:29:21;;;;;;;41.25;15.10;;;0.80;99.90;;;;;;4850530;29;20036;-77
2023/01/25 11:31:57;;;;;;;48.83;16.33;;;0.70;99.90;;;;;;4874001;29;20043;-77
2023/01/25 11:34:28;;;;;;;52.03;19.50;;;1.20;99.90;;;;;;4880716;29;20117;-77
2023/01/25 11:37:15;;;;;;;56.45;18.85;;;0.50;99.90;;;;;;4863900;29;20178;-77
2023/01/25 11:39:43;;;;;;;50.95;16.98;;;0.70;99.90;;;;;;4884804;29;20478;-77
2023/01/25 11:42:31;;;;;;;52.58;17.85;;;0.70;99.90;;;;;;4885167;29;20048;-77
2023/01/25 11:45:21;;;;;;;55.72;19.75;;;0.70;99.90;;;;;;4887398;29;20044;-78
2023/01/25 11:48:07;;;;;;;51.97;16.30;;;0.70;99.90;;;;;;4892551;29;20044;-79
2023/01/25 11:50:49;;;;;;;33.90;16.23;;;0.70;99.90;;;;;;4846645;29;20052;-79
2023/01/25 11:53:22;;;;;;;53.13;18.15;;;0.80;99.90;;;;;;4872431;29;20040;-79
2023/01/25 11:55:51;;;;;;;52.38;18.20;;;0.70;99.90;;;;;;4873936;29;20475;-78
2023/01/25 11:58:32;;;;;;;48.97;15.63;;;0.80;99.90;;;;;;4878003;29;20052;-79
2023/01/25 12:01:20;;;;;;;55.65;18.52;;;0.70;99.90;;;;;;4878249;29;20045;-79
2023/01/25 12:03:57;;;;;;;45.78;15.70;;;0.80;99.90;;;;;;4874745;29;20166;-80
2023/01/25 12:06:49;;;;;;;54.30;18.50;;;0.80;99.90;;;;;;4861165;29;20041;-80
2023/01/25 12:09:59;;;;;;;58.50;17.70;;;0.70;99.90;;;;;;4866928;29;20047;-80
2023/01/25 12:12:31;;;;;;;49.05;16.75;;;0.80;99.90;;;;;;4879008;29;20041;-80
2023/01/25 12:15:03;;;;;;;45.53;16.33;;;0.80;99.90;;;;;;4871197;29;20055;-80
2023/01/25 12:17:56;;;;;;;51.78;16.92;;;1.50;99.90;;;;;;4862329;29;20043;-80
2023/01/25 12:20:43;;;;;;;58.70;19.88;;;0.90;99.90;;;;;;4884697;29;20505;-79
2023/01/25 12:23:27;;;;;;;52.13;16.70;;;0.80;99.90;;;;;;4876645;29;20057;-80
2023/01/25 12:26:08;;;;;;;44.50;16.15;;;0.80;99.90;;;;;;4879869;29;20045;-80
2023/01/25 12:28:52;;;;;;;53.55;16.88;;;0.80;99.90;;;;;;4863515;29;20044;-80
2023/01/25 12:31:57;;;;;;;52.42;17.02;;;0.80;99.90;;;;;;4863286;29;20092;-80
2023/01/25 12:34:36;;;;;;;59.38;17.40;;;0.80;99.90;;;;;;4852487;29;20087;-80
2023/01/25 12:37:31;;;;;;;49.97;17.27;;;0.80;99.90;;;;;;4882666;29;20122;-80
2023/01/25 12:40:05;;;;;;;53.78;17.48;;;1.30;99.90;;;;;;4863790;29;20059;-80
2023/01/25 12:42:36;;;;;;;50.92;17.15;;;0.80;99.90;;;;;;4884155;29;20198;-80
2023/01/25 12:45:13;;;;;;;51.03;16.77;;;0.40;99.90;;;;;;4879797;29;20508;-80
2023/01/25 12:47:55;;;;;;;52.83;17.15;;;0.90;99.90;;;;;;4890082;29;20052;-80
2023/01/25 12:50:29;;;;;;;54.50;15.95;;;0.90;99.90;;;;;;4879075;29;20436;-80
2023/01/25 12:53:07;;;;;;;52.08;16.00;;;0.90;99.90;;;;;;4895027;29;20059;-80
2023/01/25 12:55:33;;;;;;;43.10;15.15;;;0.90;99.90;;;;;;4877844;29;20048;-80
2023/01/25 12:58:03;;;;;;;58.75;16.45;;;2.30;99.90;;;;;;4878964;29;20119;-80